createdAt,value
2023-03-06T00:02:09.518Z,-4.30
2023-03-06T00:07:11.049Z,-4.15
2023-03-06T00:12:12.544Z,-4.09
2023-03-06T00:17:14.047Z,-4.17
2023-03-06T00:22:16.561Z,-4.26
2023-03-06T00:27:18.455Z,-4.30
2023-03-06T00:32:19.979Z,-4.32
2023-03-06T00:37:23.434Z,-4.30
2023-03-06T00:42:25.326Z,-4.27
2023-03-06T00:47:27.267Z,-4.24
2023-03-06T00:52:29.224Z,-4.21
2023-03-06T00:57:30.769Z,-4.21
2023-03-06T01:02:32.640Z,-4.17
2023-03-06T01:07:37.018Z,-4.15
2023-03-06T01:12:38.947Z,-4.15
2023-03-06T01:17:40.473Z,-4.18
2023-03-06T01:22:42.927Z,-4.22
2023-03-06T01:27:44.458Z,-4.23
2023-03-06T01:32:46.456Z,-4.26
2023-03-06T01:37:47.946Z,-4.29
2023-03-06T01:42:50.537Z,-4.34
2023-03-06T01:47:51.998Z,-4.37
2023-03-06T01:52:58.062Z,-4.40
2023-03-06T01:58:03.849Z,-4.43
2023-03-06T02:03:10.405Z,-4.49
2023-03-06T02:08:15.004Z,-4.57
2023-03-06T02:13:16.649Z,-4.66
2023-03-06T02:18:18.421Z,-4.74
2023-03-06T02:23:32.263Z,-4.86
2023-03-06T02:28:34.670Z,-4.98
2023-03-06T02:33:36.184Z,-5.10
2023-03-06T02:38:44.590Z,-5.22
2023-03-06T02:43:48.802Z,-5.33
2023-03-06T02:48:50.349Z,-5.40
2023-03-06T02:53:51.868Z,-5.50
2023-03-06T02:58:53.339Z,-5.57
2023-03-06T03:03:54.845Z,-5.62
2023-03-06T03:08:56.322Z,-5.66
2023-03-06T03:13:57.807Z,-5.70
2023-03-06T03:18:59.315Z,-5.76
2023-03-06T03:24:00.807Z,-5.80
2023-03-06T03:29:04.197Z,-5.84
2023-03-06T03:34:06.163Z,-5.86
2023-03-06T03:39:07.686Z,-5.93
2023-03-06T03:44:09.711Z,-6.01
2023-03-06T03:49:11.312Z,-6.05
2023-03-06T03:54:12.911Z,-6.10
2023-03-06T03:59:14.963Z,-6.15
2023-03-06T04:04:16.553Z,-6.21
2023-03-06T04:09:18.049Z,-6.28
2023-03-06T04:14:19.501Z,-6.40
2023-03-06T04:19:20.979Z,-6.57
2023-03-06T04:24:22.436Z,-6.72
2023-03-06T04:29:23.888Z,-6.78
2023-03-06T04:34:25.547Z,-6.82
2023-03-06T04:39:27.135Z,-6.82
2023-03-06T04:44:28.643Z,-6.88
2023-03-06T04:49:30.143Z,-6.90
2023-03-06T04:54:32.127Z,-6.91
2023-03-06T04:59:33.670Z,-6.92
2023-03-06T05:04:35.196Z,-6.93
2023-03-06T05:09:39.127Z,-6.97
2023-03-06T05:14:40.789Z,-7.01
2023-03-06T05:19:42.243Z,-7.01
2023-03-06T05:24:43.705Z,-7.00
2023-03-06T05:29:45.379Z,-6.97
2023-03-06T05:34:47.559Z,-6.87
2023-03-06T05:39:50.066Z,-6.75
2023-03-06T05:44:51.610Z,-6.61
2023-03-06T05:49:53.105Z,-6.48
2023-03-06T05:54:55.442Z,-6.40
2023-03-06T05:59:56.961Z,-6.30
2023-03-06T06:04:58.517Z,-6.19
2023-03-06T06:10:03.137Z,-6.02
2023-03-06T06:15:06.643Z,-5.86
2023-03-06T06:20:09.477Z,-5.68
2023-03-06T06:25:10.956Z,-5.51
2023-03-06T06:30:13.443Z,-5.35
2023-03-06T06:35:15.117Z,-5.14
2023-03-06T06:40:17.107Z,-4.90
2023-03-06T06:45:19.016Z,-4.65
2023-03-06T06:50:20.603Z,-4.37
2023-03-06T06:55:22.110Z,-4.03
2023-03-06T07:00:24.439Z,-3.79
2023-03-06T07:05:25.961Z,-3.52
2023-03-06T07:10:27.645Z,-3.24
2023-03-06T07:15:30.884Z,-2.63
2023-03-06T07:20:32.650Z,-2.18
2023-03-06T07:25:34.323Z,-1.93
2023-03-06T07:30:35.893Z,-1.65
2023-03-06T07:35:37.435Z,-1.14
2023-03-06T07:40:39.064Z,-0.83
2023-03-06T07:45:40.531Z,-0.61
2023-03-06T07:50:42.170Z,-0.33
2023-03-06T07:55:43.695Z,-0.37
2023-03-06T08:00:45.709Z,-0.25
2023-03-06T08:05:47.203Z,0.03
2023-03-06T08:10:49.213Z,0.18
2023-03-06T08:15:50.785Z,0.50
2023-03-06T08:21:05.936Z,1.81
2023-03-06T08:26:16.387Z,2.14
2023-03-06T08:31:27.217Z,2.20
2023-03-06T08:36:29.436Z,2.14
2023-03-06T08:41:31.781Z,2.40
2023-03-06T08:46:34.999Z,2.36
2023-03-06T08:51:36.533Z,2.54
2023-03-06T08:56:38.497Z,2.66
2023-03-06T09:01:40.874Z,2.75
2023-03-06T09:06:45.303Z,2.84
2023-03-06T09:11:46.824Z,3.15
2023-03-06T09:16:48.571Z,3.32
2023-03-06T09:21:50.266Z,3.34
2023-03-06T09:26:51.886Z,3.49
2023-03-06T09:31:53.639Z,3.36
2023-03-06T09:36:57.264Z,3.29
2023-03-06T09:41:59.326Z,3.13
2023-03-06T09:47:18.967Z,3.23
2023-03-06T09:52:30.275Z,3.74
2023-03-06T09:57:36.210Z,3.94
2023-03-06T10:02:44.524Z,3.91
2023-03-06T10:07:53.022Z,3.81
2023-03-06T10:13:10.020Z,3.59
2023-03-06T10:18:13.349Z,3.35
2023-03-06T10:23:56.474Z,3.04
2023-03-06T10:29:28.773Z,3.10
2023-03-06T10:34:35.677Z,2.80
2023-03-06T10:39:37.459Z,2.46
2023-03-06T10:44:38.962Z,2.17
2023-03-06T10:49:41.213Z,1.83
2023-03-06T10:54:44.417Z,1.78
2023-03-06T10:59:56.532Z,1.76
2023-03-06T11:05:00.945Z,1.75
2023-03-06T11:10:19.412Z,1.72
2023-03-06T11:15:23.759Z,1.83
2023-03-06T11:20:48.544Z,1.83
2023-03-06T11:26:11.091Z,2.21
2023-03-06T11:31:20.960Z,2.73
2023-03-06T11:36:33.845Z,2.94
2023-03-06T11:41:57.732Z,3.01
2023-03-06T11:47:31.459Z,2.89
2023-03-06T11:52:53.224Z,2.87
2023-03-06T11:58:16.510Z,2.95
2023-03-06T12:03:36.280Z,2.84
2023-03-06T12:09:04.934Z,1.97
2023-03-06T12:14:13.009Z,1.79
2023-03-06T12:19:33.245Z,1.63
2023-03-06T12:25:03.176Z,1.25
2023-03-06T12:30:26.364Z,0.91
2023-03-06T12:36:00.345Z,0.67
2023-03-06T12:41:16.913Z,0.62
2023-03-06T12:46:24.941Z,0.41
2023-03-06T12:51:27.314Z,0.34
2023-03-06T12:56:31.739Z,0.29
2023-03-06T13:01:55.654Z,0.34
2023-03-06T13:07:28.977Z,0.49
2023-03-06T13:13:25.092Z,0.61
2023-03-06T13:18:26.575Z,0.54
2023-03-06T13:23:37.390Z,0.47
2023-03-06T13:28:46.964Z,0.47
2023-03-06T13:33:55.356Z,0.46
2023-03-06T13:39:02.566Z,0.40
2023-03-06T13:44:26.113Z,0.46
2023-03-06T13:49:29.473Z,0.65
2023-03-06T13:54:33.870Z,0.75
2023-03-06T14:00:08.744Z,0.65
2023-03-06T14:05:14.548Z,0.71
2023-03-06T14:10:24.919Z,0.82
2023-03-06T14:15:36.185Z,0.69
2023-03-06T14:20:49.369Z,0.73
2023-03-06T14:25:59.002Z,0.87
2023-03-06T14:31:03.461Z,0.92
2023-03-06T14:36:09.978Z,0.94
2023-03-06T14:41:14.061Z,1.11
2023-03-06T14:46:21.470Z,1.28
2023-03-06T14:51:25.536Z,1.41
2023-03-06T14:56:28.287Z,1.64
2023-03-06T15:01:36.392Z,1.85
2023-03-06T15:06:45.285Z,2.04
2023-03-06T15:12:08.043Z,2.13
2023-03-06T15:17:18.342Z,2.10
2023-03-06T15:22:33.571Z,1.95
2023-03-06T15:27:35.479Z,1.83
2023-03-06T15:32:42.524Z,1.79
2023-03-06T15:37:44.841Z,1.77
2023-03-06T15:42:46.854Z,1.76
2023-03-06T15:47:49.863Z,1.76
2023-03-06T15:52:53.065Z,1.72
2023-03-06T15:57:59.686Z,1.66
2023-03-06T16:03:02.028Z,1.61
2023-03-06T16:08:04.682Z,1.52
2023-03-06T16:13:11.140Z,1.47
2023-03-06T16:18:13.520Z,1.38
2023-03-06T16:23:16.374Z,1.20
2023-03-06T16:28:17.908Z,1.08
2023-03-06T16:33:20.745Z,0.97
2023-03-06T16:38:22.273Z,0.86
2023-03-06T16:43:23.839Z,0.79
2023-03-06T16:48:25.317Z,0.79
2023-03-06T16:53:26.913Z,0.84
2023-03-06T16:58:28.481Z,0.87
2023-03-06T17:03:30.022Z,0.87
2023-03-06T17:08:31.610Z,0.86
2023-03-06T17:13:33.094Z,0.87
2023-03-06T17:18:35.236Z,0.89
2023-03-06T17:23:37.915Z,0.93
2023-03-06T17:28:39.975Z,0.93
2023-03-06T17:33:42.418Z,0.94
2023-03-06T17:38:44.303Z,0.96
2023-03-06T17:43:46.188Z,0.97
2023-03-06T17:48:47.865Z,0.94
2023-03-06T17:53:49.748Z,0.85
2023-03-06T17:58:51.408Z,0.73
2023-03-06T18:03:53.623Z,0.63
2023-03-06T18:08:55.094Z,0.57
2023-03-06T18:13:56.837Z,0.54
2023-03-06T18:18:58.595Z,0.57
2023-03-06T18:24:00.126Z,0.62
2023-03-06T18:29:04.512Z,0.68
2023-03-06T18:34:12.670Z,0.74
2023-03-06T18:39:15.799Z,0.80
2023-03-06T18:44:17.657Z,0.84
2023-03-06T18:49:19.226Z,0.86
2023-03-06T18:54:20.994Z,0.84
2023-03-06T18:59:22.845Z,0.80
2023-03-06T19:04:26.130Z,0.69
2023-03-06T19:09:27.630Z,0.59
2023-03-06T19:14:29.637Z,0.52
2023-03-06T19:19:31.151Z,0.48
2023-03-06T19:24:32.692Z,0.46
2023-03-06T19:29:34.246Z,0.47
2023-03-06T19:34:35.766Z,0.51
2023-03-06T19:39:37.323Z,0.54
2023-03-06T19:44:38.788Z,0.60
2023-03-06T19:49:40.433Z,0.63
2023-03-06T19:54:41.923Z,0.64
2023-03-06T19:59:43.829Z,0.66
2023-03-06T20:04:47.229Z,0.68
2023-03-06T20:09:48.913Z,0.69
2023-03-06T20:14:53.244Z,0.72
2023-03-06T20:19:58.180Z,0.76
2023-03-06T20:24:59.662Z,0.77
2023-03-06T20:30:01.507Z,0.75
2023-03-06T20:35:03.590Z,0.76
2023-03-06T20:40:06.082Z,0.75
2023-03-06T20:45:08.166Z,0.75
2023-03-06T20:50:10.224Z,0.74
2023-03-06T20:55:12.100Z,0.72
2023-03-06T21:00:14.018Z,0.66
2023-03-06T21:05:15.874Z,0.61
2023-03-06T21:10:17.552Z,0.59
2023-03-06T21:15:19.635Z,0.60
2023-03-06T21:20:21.298Z,0.59
2023-03-06T21:25:23.391Z,0.55
2023-03-06T21:30:24.865Z,0.54
2023-03-06T21:35:26.828Z,0.45
2023-03-06T21:40:28.415Z,0.44
2023-03-06T21:45:31.818Z,0.45
2023-03-06T21:50:33.402Z,0.39
2023-03-06T21:55:39.895Z,0.28
2023-03-06T22:00:41.436Z,0.19
2023-03-06T22:05:43.347Z,0.05
2023-03-06T22:10:47.524Z,-0.07
2023-03-06T22:15:51.737Z,-0.12
2023-03-06T22:20:53.299Z,-0.15
2023-03-06T22:25:54.808Z,-0.16
2023-03-06T22:31:02.135Z,-0.17
2023-03-06T22:36:07.654Z,-0.21
2023-03-06T22:41:10.712Z,-0.25
2023-03-06T22:46:14.965Z,-0.24
2023-03-06T22:51:19.424Z,-0.22
2023-03-06T22:56:22.219Z,-0.23
2023-03-06T23:01:26.769Z,-0.24
2023-03-06T23:06:34.043Z,-0.25
2023-03-06T23:11:35.578Z,-0.26
2023-03-06T23:16:38.907Z,-0.24
2023-03-06T23:21:40.987Z,-0.24
2023-03-06T23:26:42.589Z,-0.24
2023-03-06T23:31:44.053Z,-0.24
2023-03-06T23:36:45.569Z,-0.26
2023-03-06T23:41:47.581Z,-0.27
2023-03-06T23:46:49.075Z,-0.28
2023-03-06T23:51:50.690Z,-0.30
2023-03-06T23:56:52.182Z,-0.31
